Time;durP1;ratioP1;P1;durP2;ratioP2;P2;SDS_P1;SDS_P2;PMS_P1;PMS_P2;Temp;Humidity;BMP_temperature;BMP_pressure;BME280_temperature;BME280_humidity;BME280_pressure;Samples;Min_cycle;Max_cycle;Signal;HPM_P1;HPM_P2
2023/06/03 00:00:20;;;;;;;7.18;2.72;;;19.50;47.80;;;;;;5034302;28;20235;-71
2023/06/03 00:02:49;;;;;;;6.57;2.70;;;19.50;47.80;;;;;;5034297;28;20254;-70
2023/06/03 00:05:19;;;;;;;6.32;2.58;;;19.50;47.80;;;;;;5034377;28;20250;-71
2023/06/03 00:07:46;;;;;;;9.40;2.90;;;19.50;47.80;;;;;;5034244;28;20225;-72
2023/06/03 00:10:13;;;;;;;11.50;3.00;;;19.50;48.50;;;;;;5034013;28;20189;-72
2023/06/03 00:12:40;;;;;;;5.32;2.50;;;19.50;47.80;;;;;;5034099;28;20223;-71
2023/06/03 00:15:08;;;;;;;8.52;2.70;;;19.40;47.80;;;;;;5034157;28;20195;-71
2023/06/03 00:17:36;;;;;;;6.28;2.72;;;19.50;47.90;;;;;;5034186;28;20690;-72
2023/06/03 00:20:06;;;;;;;7.80;2.75;;;19.50;47.90;;;;;;5034084;28;20220;-72
2023/06/03 00:22:35;;;;;;;10.32;3.17;;;19.50;47.90;;;;;;5034297;28;20222;-72
2023/06/03 00:25:02;;;;;;;8.20;3.20;;;19.50;47.90;;;;;;5033776;28;20207;-72
2023/06/03 00:27:29;;;;;;;8.63;3.08;;;19.50;47.90;;;;;;5034359;28;20218;-72
2023/06/03 00:29:56;;;;;;;7.50;3.10;;;19.50;47.90;;;;;;5034209;28;20188;-74
2023/06/03 00:32:23;;;;;;;7.32;2.85;;;19.50;47.90;;;;;;5033827;28;20220;-74
2023/06/03 00:34:51;;;;;;;8.05;3.17;;;19.50;48.00;;;;;;5033892;28;20188;-72
2023/06/03 00:37:18;;;;;;;7.85;2.95;;;19.40;47.80;;;;;;5033655;28;20218;-73
2023/06/03 00:39:45;;;;;;;8.75;3.10;;;19.40;47.90;;;;;;5033716;28;20216;-72
2023/06/03 00:42:12;;;;;;;9.27;3.70;;;19.40;47.90;;;;;;5033833;28;20600;-72
2023/06/03 00:44:39;;;;;;;7.57;2.72;;;19.40;47.80;;;;;;5033702;28;20215;-72
2023/06/03 00:47:08;;;;;;;6.80;2.83;;;19.40;47.90;;;;;;5033842;28;20255;-72
2023/06/03 00:49:36;;;;;;;9.40;3.03;;;19.40;47.90;;;;;;5015571;28;20820;-72
2023/06/03 00:52:05;;;;;;;8.25;2.83;;;19.40;47.90;;;;;;5033383;28;20216;-73
2023/06/03 00:54:33;;;;;;;7.72;2.70;;;19.40;47.90;;;;;;5033127;28;20279;-72
2023/06/03 00:57:03;;;;;;;8.93;3.15;;;19.40;48.00;;;;;;5033248;28;20220;-72
2023/06/03 00:59:30;;;;;;;6.22;2.88;;;19.40;48.00;;;;;;5033288;28;20212;-71
2023/06/03 01:01:57;;;;;;;8.43;3.20;;;19.40;48.00;;;;;;5033018;28;20242;-73
2023/06/03 01:04:25;;;;;;;6.53;3.20;;;19.40;48.10;;;;;;5033257;28;20202;-71
2023/06/03 01:07:07;;;;;;;9.30;3.40;;;19.40;48.00;;;;;;5033687;28;20216;-76
2023/06/03 01:09:45;;;;;;;10.60;3.05;;;19.40;48.00;;;;;;5032964;28;20192;-76
2023/06/03 01:12:20;;;;;;;7.80;3.05;;;19.40;48.00;;;;;;5033074;28;20222;-71
2023/06/03 01:14:55;;;;;;;10.43;3.65;;;19.40;48.10;;;;;;5032720;28;20669;-71
2023/06/03 01:17:25;;;;;;;7.75;3.33;;;19.40;48.10;;;;;;5016202;28;20219;-71
2023/06/03 01:19:53;;;;;;;10.07;3.42;;;19.30;48.10;;;;;;5033006;28;20212;-73
2023/06/03 01:22:24;;;;;;;7.78;3.38;;;19.30;48.10;;;;;;5032708;28;20593;-71
2023/06/03 01:25:03;;;;;;;6.22;3.20;;;19.30;48.10;;;;;;5032622;28;20242;-71
2023/06/03 01:27:30;;;;;;;11.98;3.83;;;19.40;48.20;;;;;;5032866;28;20223;-74
2023/06/03 01:29:57;;;;;;;9.82;3.97;;;19.30;48.10;;;;;;5032552;28;20571;-73
2023/06/03 01:32:24;;;;;;;8.93;3.60;;;19.30;48.10;;;;;;5032953;28;20222;-73
2023/06/03 01:34:53;;;;;;;7.97;4.20;;;19.30;48.20;;;;;;5032745;28;20273;-72
2023/06/03 01:37:21;;;;;;;9.45;3.40;;;19.30;48.20;;;;;;5032879;28;20222;-73
2023/06/03 01:39:48;;;;;;;9.18;3.22;;;19.30;48.20;;;;;;5032613;28;20212;-72
2023/06/03 01:42:17;;;;;;;7.38;3.38;;;19.40;48.30;;;;;;5033013;28;20247;-72
2023/06/03 01:44:45;;;;;;;10.60;3.97;;;19.30;48.30;;;;;;5032571;28;20189;-74
2023/06/03 01:47:12;;;;;;;12.40;3.83;;;19.30;48.40;;;;;;5032708;28;20216;-71
2023/06/03 01:49:40;;;;;;;7.63;3.20;;;19.30;48.30;;;;;;5032294;28;20224;-73
2023/06/03 01:52:07;;;;;;;8.75;3.53;;;19.30;48.30;;;;;;5032926;28;20254;-71
2023/06/03 01:54:34;;;;;;;10.45;4.03;;;19.30;48.40;;;;;;5032425;28;20189;-72
2023/06/03 01:57:01;;;;;;;9.55;4.40;;;19.30;48.40;;;;;;5032561;28;20216;-72
2023/06/03 01:59:30;;;;;;;7.40;3.38;;;19.30;48.50;;;;;;5032016;28;20655;-72
2023/06/03 02:01:58;;;;;;;8.63;3.65;;;19.30;48.50;;;;;;5032207;28;20302;-72
2023/06/03 02:04:26;;;;;;;7.00;3.05;;;19.30;48.50;;;;;;5032690;28;20292;-72
2023/06/03 02:06:55;;;;;;;9.95;3.70;;;19.30;48.60;;;;;;5032289;28;20226;-72
2023/06/03 02:09:24;;;;;;;8.43;3.35;;;19.30;48.60;;;;;;5031619;28;20196;-71
2023/06/03 02:11:52;;;;;;;10.52;3.78;;;19.30;48.70;;;;;;5032354;28;20220;-71
2023/06/03 02:14:19;;;;;;;9.75;3.60;;;19.30;48.60;;;;;;5031933;28;20665;-74
2023/06/03 02:16:49;;;;;;;11.05;3.70;;;19.30;48.70;;;;;;5032029;28;20248;-72
2023/06/03 02:19:17;;;;;;;10.32;4.18;;;19.30;48.70;;;;;;5032040;28;20204;-72
2023/06/03 02:21:45;;;;;;;8.50;3.38;;;19.30;48.70;;;;;;5032355;28;20231;-71
2023/06/03 02:24:14;;;;;;;7.95;3.47;;;19.30;48.70;;;;;;5032199;28;20184;-73
2023/06/03 02:26:49;;;;;;;10.73;3.58;;;19.30;48.80;;;;;;5032133;28;20585;-71
2023/06/03 02:29:18;;;;;;;7.30;3.55;;;19.30;48.70;;;;;;5032080;28;20192;-71
2023/06/03 02:31:46;;;;;;;10.18;4.35;;;19.30;48.80;;;;;;5031851;28;20600;-71
2023/06/03 02:34:13;;;;;;;10.25;4.00;;;19.30;48.80;;;;;;5032364;28;20553;-71
2023/06/03 02:36:42;;;;;;;11.63;4.13;;;19.30;48.90;;;;;;5031879;28;20837;-71
2023/06/03 02:39:09;;;;;;;8.00;3.80;;;19.30;48.90;;;;;;5046447;28;20657;-72
2023/06/03 02:41:36;;;;;;;7.03;3.50;;;19.30;48.90;;;;;;5051820;28;20314;-71
2023/06/03 02:44:04;;;;;;;8.20;3.92;;;19.30;49.00;;;;;;5051885;28;20196;-71
2023/06/03 02:46:31;;;;;;;10.68;4.13;;;19.30;49.00;;;;;;5051910;28;20247;-71
2023/06/03 02:49:03;;;;;;;10.90;4.10;;;19.30;49.00;;;;;;5051570;28;20191;-72
2023/06/03 02:51:30;;;;;;;20.85;4.63;;;19.30;49.00;;;;;;5033910;28;20215;-72
2023/06/03 02:53:58;;;;;;;10.15;3.95;;;19.20;49.00;;;;;;5051543;28;20688;-71
2023/06/03 02:56:26;;;;;;;8.88;3.90;;;19.30;49.20;;;;;;5051737;28;20307;-72
2023/06/03 02:58:54;;;;;;;11.10;4.07;;;19.30;49.20;;;;;;5051747;28;20183;-71
2023/06/03 03:01:21;;;;;;;11.95;4.65;;;19.30;49.20;;;;;;5051312;28;20712;-72
2023/06/03 03:03:48;;;;;;;10.30;4.53;;;19.30;49.20;;;;;;5051343;28;20619;-71
2023/06/03 03:06:19;;;;;;;9.15;4.07;;;19.30;49.30;;;;;;5034313;28;20216;-71
2023/06/03 03:08:46;;;;;;;13.45;4.40;;;19.30;49.30;;;;;;5051653;28;20191;-71
2023/06/03 03:11:14;;;;;;;11.95;4.38;;;19.30;49.30;;;;;;5051448;28;20294;-71
2023/06/03 03:13:42;;;;;;;9.20;3.80;;;19.30;49.30;;;;;;5051583;28;20215;-71
2023/06/03 03:16:09;;;;;;;9.02;4.00;;;19.30;49.30;;;;;;5051567;28;20636;-71
2023/06/03 03:18:37;;;;;;;12.85;4.65;;;19.30;49.40;;;;;;5051994;28;20189;-72
2023/06/03 03:21:05;;;;;;;9.10;3.83;;;19.30;49.40;;;;;;5037325;28;20222;-71
2023/06/03 03:23:34;;;;;;;9.45;3.72;;;19.30;49.40;;;;;;5055168;28;20188;-71
2023/06/03 03:26:02;;;;;;;7.68;3.88;;;19.30;49.40;;;;;;5037100;28;20648;-71
2023/06/03 03:28:29;;;;;;;9.13;4.00;;;19.30;49.50;;;;;;5055055;28;20192;-71
2023/06/03 03:30:56;;;;;;;11.73;4.50;;;19.20;49.40;;;;;;5054925;28;20627;-71
2023/06/03 03:33:23;;;;;;;9.10;3.30;;;19.20;49.40;;;;;;5055134;28;20199;-71
2023/06/03 03:35:52;;;;;;;9.10;3.80;;;19.20;49.40;;;;;;5054915;28;20538;-71
2023/06/03 03:38:20;;;;;;;10.00;4.47;;;19.20;49.50;;;;;;5054917;28;20188;-71
2023/06/03 03:40:48;;;;;;;8.27;3.97;;;19.20;49.50;;;;;;5054664;28;20223;-71
2023/06/03 03:43:17;;;;;;;10.88;3.55;;;19.30;49.50;;;;;;5054782;28;20188;-71
2023/06/03 03:45:45;;;;;;;10.15;4.03;;;19.30;49.60;;;;;;5054732;28;20213;-71
2023/06/03 03:48:14;;;;;;;10.02;3.88;;;19.20;49.60;;;;;;5054986;28;20223;-71
2023/06/03 03:50:43;;;;;;;9.02;3.85;;;19.20;49.60;;;;;;5054583;28;20237;-71
2023/06/03 03:53:12;;;;;;;10.40;4.10;;;19.20;49.60;;;;;;5054480;28;20222;-71
2023/06/03 03:55:41;;;;;;;16.50;4.28;;;19.20;49.60;;;;;;5054575;28;20196;-71
2023/06/03 03:58:26;;;;;;;7.43;3.90;;;19.20;49.70;;;;;;5054431;28;20223;-71
2023/06/03 04:00:54;;;;;;;10.38;4.22;;;19.20;49.70;;;;;;5038192;28;20219;-71
2023/06/03 04:03:23;;;;;;;8.55;3.85;;;19.20;49.70;;;;;;5054061;28;20669;-71
2023/06/03 04:05:51;;;;;;;9.60;3.80;;;19.20;49.70;;;;;;5054342;28;20690;-71
2023/06/03 04:08:36;;;;;;;10.68;3.70;;;19.20;49.80;;;;;;5054277;28;20199;-71
2023/06/03 04:11:04;;;;;;;8.45;3.60;;;19.20;49.70;;;;;;5036281;28;20196;-71
2023/06/03 04:13:36;;;;;;;10.48;3.55;;;19.20;49.80;;;;;;5054640;28;20192;-71
2023/06/03 04:16:07;;;;;;;10.98;3.70;;;19.20;49.80;;;;;;5036230;28;20191;-75
2023/06/03 04:18:37;;;;;;;15.40;3.97;;;19.20;49.80;;;;;;5054246;28;20191;-75
2023/06/03 04:21:05;;;;;;;10.40;3.78;;;19.20;49.80;;;;;;5053892;28;20225;-73
2023/06/03 04:23:33;;;;;;;10.50;3.50;;;19.20;49.80;;;;;;5053729;28;20187;-75
2023/06/03 04:26:02;;;;;;;7.65;3.63;;;19.20;49.80;;;;;;5054086;28;20194;-71
2023/06/03 04:28:29;;;;;;;8.90;3.53;;;19.20;49.90;;;;;;5053573;28;20241;-72
2023/06/03 04:30:58;;;;;;;7.57;3.30;;;19.20;49.90;;;;;;5053045;28;20270;-72
2023/06/03 04:33:26;;;;;;;8.35;3.20;;;19.20;50.00;;;;;;5053560;28;20195;-72
2023/06/03 04:35:53;;;;;;;9.57;3.75;;;19.20;50.00;;;;;;5053404;28;20557;-72
2023/06/03 04:38:20;;;;;;;9.30;3.40;;;19.20;50.00;;;;;;5053753;28;20183;-71
2023/06/03 04:40:48;;;;;;;7.45;3.67;;;19.20;50.10;;;;;;5053609;28;20219;-74
2023/06/03 04:43:18;;;;;;;10.10;3.53;;;19.20;50.00;;;;;;5053585;28;20216;-72
2023/06/03 04:45:49;;;;;;;9.80;3.53;;;19.20;50.10;;;;;;5053647;28;20192;-73
2023/06/03 04:48:22;;;;;;;14.80;4.00;;;19.10;50.00;;;;;;5036827;28;20222;-72
2023/06/03 04:50:49;;;;;;;11.60;3.58;;;19.10;50.00;;;;;;5053498;28;20194;-73
2023/06/03 04:53:16;;;;;;;10.75;3.70;;;19.20;50.10;;;;;;5053118;28;20235;-71
2023/06/03 04:55:44;;;;;;;11.35;3.42;;;19.20;50.10;;;;;;5053108;28;20269;-72
2023/06/03 04:58:12;;;;;;;10.57;3.83;;;19.20;50.20;;;;;;5053606;28;20585;-72
2023/06/03 05:00:40;;;;;;;12.27;3.45;;;19.20;50.20;;;;;;5053174;28;20196;-75
2023/06/03 05:03:09;;;;;;;9.48;3.28;;;19.20;50.20;;;;;;5053218;28;20219;-71
2023/06/03 05:05:43;;;;;;;9.85;3.10;;;19.20;50.20;;;;;;5053634;28;20206;-72
2023/06/03 05:08:10;;;;;;;10.07;3.22;;;19.10;50.10;;;;;;5035343;28;20220;-72
2023/06/03 05:10:37;;;;;;;9.90;3.65;;;19.10;50.10;;;;;;5052869;28;20560;-72
2023/06/03 05:13:05;;;;;;;7.90;3.53;;;19.10;50.10;;;;;;5052958;28;20577;-72
2023/06/03 05:15:33;;;;;;;14.52;3.70;;;19.10;50.20;;;;;;5052484;28;20206;-72
2023/06/03 05:18:01;;;;;;;10.25;3.88;;;19.10;50.10;;;;;;5035685;28;20251;-72
2023/06/03 05:20:29;;;;;;;12.02;3.55;;;19.10;50.10;;;;;;5052877;28;20192;-73
2023/06/03 05:22:58;;;;;;;10.25;3.53;;;19.10;50.20;;;;;;5052802;28;20219;-72
2023/06/03 05:25:25;;;;;;;7.88;3.50;;;19.10;50.10;;;;;;5052821;28;20192;-71
2023/06/03 05:27:52;;;;;;;8.30;3.58;;;19.10;50.20;;;;;;5053193;28;20216;-72
2023/06/03 05:30:19;;;;;;;12.07;4.35;;;19.10;50.20;;;;;;5052687;28;20190;-71
2023/06/03 05:32:46;;;;;;;8.82;3.85;;;19.10;50.10;;;;;;5052790;28;20669;-71
2023/06/03 05:35:13;;;;;;;10.00;4.10;;;19.10;50.20;;;;;;5052680;28;20200;-75
2023/06/03 05:37:40;;;;;;;9.20;3.47;;;19.10;50.20;;;;;;5052425;28;20230;-72
2023/06/03 05:40:10;;;;;;;9.90;3.70;;;19.10;50.20;;;;;;5052596;28;20198;-71
2023/06/03 05:42:38;;;;;;;8.68;3.88;;;19.10;50.10;;;;;;5034553;28;20285;-72
2023/06/03 05:45:06;;;;;;;8.10;3.33;;;19.10;50.10;;;;;;5034844;28;20192;-71
2023/06/03 05:47:33;;;;;;;10.63;3.55;;;19.10;50.10;;;;;;5034484;28;20215;-73
2023/06/03 05:50:00;;;;;;;13.50;3.80;;;19.10;50.20;;;;;;5052384;28;20198;-72
2023/06/03 05:52:27;;;;;;;10.45;4.18;;;19.10;50.10;;;;;;5034523;28;20551;-73
2023/06/03 05:54:54;;;;;;;12.52;3.97;;;19.10;50.20;;;;;;5052367;28;20571;-72
2023/06/03 05:57:24;;;;;;;8.82;3.42;;;19.10;50.20;;;;;;5052359;28;20222;-73
2023/06/03 05:59:51;;;;;;;9.40;3.38;;;19.10;50.20;;;;;;5052241;28;20196;-72
2023/06/03 06:02:19;;;;;;;8.27;3.45;;;19.10;50.20;;;;;;5051754;28;20239;-73
2023/06/03 06:04:46;;;;;;;12.20;3.65;;;19.10;50.20;;;;;;5052506;28;20200;-72
2023/06/03 06:07:13;;;;;;;8.63;3.53;;;19.10;50.30;;;;;;5052364;28;20223;-73
2023/06/03 06:09:40;;;;;;;9.27;3.40;;;19.10;50.30;;;;;;5052196;28;20246;-76
2023/06/03 06:12:07;;;;;;;9.65;3.75;;;19.00;50.20;;;;;;5018555;28;20226;-72
2023/06/03 06:14:37;;;;;;;9.60;3.90;;;19.10;50.20;;;;;;5052156;28;20192;-74
2023/06/03 06:17:05;;;;;;;11.00;3.65;;;19.10;50.40;;;;;;5052356;28;20215;-72
2023/06/03 06:19:32;;;;;;;9.50;3.80;;;19.10;50.40;;;;;;5034740;28;20279;-71
2023/06/03 06:21:59;;;;;;;11.75;3.80;;;19.10;50.40;;;;;;5052115;28;20231;-72
2023/06/03 06:24:26;;;;;;;10.88;3.50;;;19.10;50.50;;;;;;5052384;28;20192;-71
2023/06/03 06:26:53;;;;;;;16.05;4.07;;;19.10;50.50;;;;;;5052080;28;20215;-72
2023/06/03 06:29:20;;;;;;;9.43;3.90;;;19.10;50.60;;;;;;5051844;28;20291;-73
2023/06/03 06:31:51;;;;;;;7.72;3.10;;;19.10;50.50;;;;;;5051669;28;20595;-71
2023/06/03 06:34:18;;;;;;;8.70;3.40;;;19.10;50.60;;;;;;5052057;28;20249;-72
2023/06/03 06:36:49;;;;;;;10.43;3.60;;;19.10;50.60;;;;;;5051987;28;20580;-72
2023/06/03 06:39:46;;;;;;;13.05;3.47;;;19.10;50.60;;;;;;5052065;28;20194;-71
2023/06/03 06:42:15;;;;;;;10.73;3.80;;;19.10;50.60;;;;;;5051180;28;20254;-71
2023/06/03 06:44:46;;;;;;;11.07;3.55;;;19.10;50.60;;;;;;5051944;28;20219;-74
2023/06/03 06:47:21;;;;;;;12.02;3.97;;;19.10;50.60;;;;;;5051927;28;20219;-71
2023/06/03 06:49:48;;;;;;;9.75;3.67;;;19.10;50.60;;;;;;5051485;28;20540;-71
2023/06/03 06:52:15;;;;;;;8.63;3.78;;;19.10;50.60;;;;;;5051953;28;20219;-71
2023/06/03 06:54:43;;;;;;;10.45;3.47;;;19.10;50.60;;;;;;5053964;28;20198;-71
2023/06/03 06:57:10;;;;;;;10.50;3.80;;;19.10;50.70;;;;;;5037818;28;20223;-71
2023/06/03 06:59:37;;;;;;;10.57;3.58;;;19.10;50.70;;;;;;5055275;28;20581;-71
2023/06/03 07:02:04;;;;;;;9.63;3.97;;;19.10;50.70;;;;;;5055126;28;20675;-74
2023/06/03 07:04:33;;;;;;;9.18;3.47;;;19.10;50.70;;;;;;5055223;28;20282;-71
2023/06/03 07:07:00;;;;;;;8.43;3.67;;;19.10;50.70;;;;;;5037794;28;20215;-71
2023/06/03 07:09:27;;;;;;;9.48;3.72;;;19.10;50.80;;;;;;5055677;28;20183;-71
2023/06/03 07:11:54;;;;;;;11.35;3.83;;;19.10;50.70;;;;;;5055543;28;20221;-71
2023/06/03 07:14:22;;;;;;;9.77;3.85;;;19.10;50.80;;;;;;5055584;28;20220;-71
2023/06/03 07:16:49;;;;;;;10.25;3.70;;;19.00;50.80;;;;;;5055016;28;20306;-72
2023/06/03 07:19:16;;;;;;;11.77;3.50;;;19.10;50.90;;;;;;5055201;28;20190;-71
2023/06/03 07:21:45;;;;;;;9.57;3.40;;;19.10;50.80;;;;;;5055117;28;20239;-71
2023/06/03 07:24:13;;;;;;;8.15;3.38;;;19.10;50.90;;;;;;5055213;28;20565;-71
2023/06/03 07:26:40;;;;;;;13.45;3.83;;;19.10;50.90;;;;;;5055113;28;20226;-71
2023/06/03 07:29:08;;;;;;;14.25;3.83;;;19.10;50.90;;;;;;5055092;28;20191;-71
2023/06/03 07:31:37;;;;;;;10.82;3.58;;;19.10;50.90;;;;;;5054946;28;20195;-71
2023/06/03 07:34:04;;;;;;;11.52;3.85;;;19.10;51.00;;;;;;5054733;28;20230;-72
2023/06/03 07:36:31;;;;;;;13.48;3.67;;;19.10;51.00;;;;;;5054878;28;20538;-71
2023/06/03 07:39:04;;;;;;;9.77;3.75;;;19.10;51.00;;;;;;5054932;28;20198;-71
2023/06/03 07:41:40;;;;;;;9.38;3.50;;;19.00;51.00;;;;;;5054721;28;20242;-71
2023/06/03 07:44:08;;;;;;;7.95;3.67;;;19.10;51.20;;;;;;5054802;28;20187;-71
2023/06/03 07:46:41;;;;;;;12.10;3.70;;;19.00;51.00;;;;;;5054739;28;20565;-71
2023/06/03 07:49:09;;;;;;;9.18;3.83;;;19.10;51.10;;;;;;5054686;28;20198;-71
2023/06/03 07:51:39;;;;;;;8.90;3.50;;;19.00;51.00;;;;;;5054218;28;20642;-71
2023/06/03 07:54:09;;;;;;;13.32;4.13;;;19.10;51.10;;;;;;5054654;28;20187;-71
2023/06/03 07:56:36;;;;;;;11.18;4.38;;;19.00;51.10;;;;;;5054298;28;20661;-71
2023/06/03 07:59:04;;;;;;;9.27;3.53;;;19.10;51.10;;;;;;5054221;28;20617;-71
2023/06/03 08:01:32;;;;;;;10.35;3.90;;;19.00;51.10;;;;;;5054527;28;20227;-74
2023/06/03 08:04:01;;;;;;;11.05;3.90;;;19.00;51.10;;;;;;5054846;28;20196;-72
2023/06/03 08:06:28;;;;;;;9.00;3.55;;;19.10;51.30;;;;;;5053340;28;20188;-71
2023/06/03 08:08:58;;;;;;;9.68;3.38;;;19.00;51.20;;;;;;5054547;28;20295;-77
2023/06/03 08:11:27;;;;;;;9.27;3.60;;;19.00;51.90;;;;;;5054333;28;20188;-74
2023/06/03 08:13:56;;;;;;;8.93;3.42;;;19.00;51.20;;;;;;5054342;28;20221;-73
2023/06/03 08:16:23;;;;;;;10.95;4.35;;;19.00;51.20;;;;;;5053771;28;20190;-73
2023/06/03 08:18:54;;;;;;;9.73;3.55;;;19.00;51.20;;;;;;5054112;28;20775;-72
2023/06/03 08:21:28;;;;;;;6.53;3.50;;;19.00;51.20;;;;;;5054249;28;20196;-75
2023/06/03 08:23:55;;;;;;;9.35;3.60;;;19.00;51.30;;;;;;5054042;28;20191;-73
2023/06/03 08:26:22;;;;;;;8.25;3.67;;;19.10;51.30;;;;;;5053998;28;20190;-74
2023/06/03 08:28:51;;;;;;;6.05;3.10;;;19.00;51.30;;;;;;5054187;28;20188;-74
2023/06/03 08:31:18;;;;;;;9.15;3.78;;;19.00;51.30;;;;;;5018853;28;20206;-74
2023/06/03 08:33:45;;;;;;;11.73;3.92;;;19.00;51.30;;;;;;5054076;28;20211;-74
2023/06/03 08:36:12;;;;;;;7.65;3.45;;;19.00;51.40;;;;;;5053809;28;20194;-73
2023/06/03 08:38:40;;;;;;;8.73;3.80;;;19.00;51.30;;;;;;5053801;28;20215;-77
2023/06/03 08:41:08;;;;;;;12.98;3.83;;;19.00;51.40;;;;;;5036190;28;20183;-77
2023/06/03 08:43:39;;;;;;;9.70;3.80;;;19.00;51.30;;;;;;5053719;28;20262;-72
2023/06/03 08:46:21;;;;;;;11.15;3.50;;;19.00;51.40;;;;;;5053690;28;20184;-76
2023/06/03 08:48:56;;;;;;;8.68;3.88;;;19.00;51.40;;;;;;5053719;28;20218;-74
2023/06/03 08:51:25;;;;;;;8.77;3.25;;;19.00;51.40;;;;;;5053485;28;20274;-74
2023/06/03 08:53:53;;;;;;;9.32;3.58;;;19.00;51.50;;;;;;5053401;28;20219;-74
2023/06/03 08:56:21;;;;;;;11.30;3.75;;;19.00;51.50;;;;;;5053401;28;20202;-72
2023/06/03 08:58:50;;;;;;;8.23;3.50;;;19.00;51.50;;;;;;5053521;28;20212;-74
2023/06/03 09:01:22;;;;;;;9.38;3.80;;;19.00;51.50;;;;;;5031769;28;20224;-74
2023/06/03 09:03:53;;;;;;;9.85;3.92;;;19.00;51.60;;;;;;5032959;28;20236;-72
2023/06/03 09:06:21;;;;;;;12.18;3.95;;;19.00;51.60;;;;;;5032119;28;20214;-73
2023/06/03 09:08:51;;;;;;;9.20;3.63;;;19.00;51.70;;;;;;5033277;28;20224;-73
2023/06/03 09:11:18;;;;;;;12.38;4.15;;;19.00;51.60;;;;;;5033258;28;20196;-72
2023/06/03 09:13:46;;;;;;;9.45;3.85;;;19.00;51.60;;;;;;5032752;28;20219;-72
2023/06/03 09:16:13;;;;;;;10.15;3.78;;;19.00;51.60;;;;;;5033078;28;20192;-73
2023/06/03 09:18:43;;;;;;;8.57;3.90;;;19.00;51.60;;;;;;5033185;28;20223;-72
2023/06/03 09:21:11;;;;;;;9.55;3.50;;;19.00;51.60;;;;;;5033102;28;20215;-73
2023/06/03 09:23:40;;;;;;;12.00;3.95;;;19.00;51.70;;;;;;5033103;28;20268;-72
2023/06/03 09:26:07;;;;;;;8.93;3.47;;;19.00;51.60;;;;;;5033054;28;20192;-76
2023/06/03 09:28:35;;;;;;;10.18;3.50;;;19.00;51.70;;;;;;5033039;28;20216;-73
2023/06/03 09:31:03;;;;;;;10.48;3.97;;;19.00;51.70;;;;;;5032939;28;20188;-75
2023/06/03 09:33:30;;;;;;;9.10;3.30;;;19.00;51.70;;;;;;5032748;28;20597;-73
2023/06/03 09:36:10;;;;;;;10.48;3.95;;;19.00;51.70;;;;;;5032799;28;20195;-73
2023/06/03 09:38:50;;;;;;;12.18;4.22;;;19.00;51.70;;;;;;5032536;28;20214;-76
2023/06/03 09:41:19;;;;;;;6.90;3.58;;;19.00;51.70;;;;;;5032705;28;20188;-76
2023/06/03 09:43:56;;;;;;;9.38;3.85;;;19.00;51.70;;;;;;5032774;28;20236;-74
2023/06/03 09:46:26;;;;;;;10.50;3.85;;;19.00;51.70;;;;;;5032710;28;20192;-75
2023/06/03 09:48:53;;;;;;;10.40;3.63;;;19.00;51.70;;;;;;5032227;28;20239;-71
2023/06/03 09:51:41;;;;;;;11.70;3.78;;;19.00;51.70;;;;;;5032341;28;20188;-75
2023/06/03 09:54:13;;;;;;;11.07;4.15;;;19.00;51.70;;;;;;5032531;28;20192;-73
2023/06/03 09:56:41;;;;;;;9.63;3.80;;;19.00;51.90;;;;;;5032528;28;20199;-73
2023/06/03 09:59:17;;;;;;;9.45;3.72;;;19.00;51.90;;;;;;5032414;28;20185;-78
2023/06/03 10:01:45;;;;;;;9.95;4.18;;;19.00;52.00;;;;;;5041062;28;20328;-73
2023/06/03 10:04:13;;;;;;;8.68;3.58;;;19.00;52.00;;;;;;5052464;28;20280;-71
2023/06/03 10:06:41;;;;;;;9.70;4.10;;;19.00;51.90;;;;;;5052239;28;20206;-73
2023/06/03 10:09:22;;;;;;;9.13;3.85;;;19.00;51.90;;;;;;5052236;28;20188;-72
2023/06/03 10:11:50;;;;;;;10.68;4.00;;;19.00;52.00;;;;;;5052233;28;20233;-72
2023/06/03 10:14:22;;;;;;;10.57;4.50;;;19.00;52.00;;;;;;5052230;28;20211;-72
2023/06/03 10:17:07;;;;;;;9.23;3.80;;;19.00;52.00;;;;;;5052246;28;20187;-72
2023/06/03 10:19:35;;;;;;;12.00;4.57;;;19.00;52.00;;;;;;5052086;28;20195;-74
2023/06/03 10:22:06;;;;;;;10.23;4.30;;;19.00;52.10;;;;;;5052063;28;20215;-72
2023/06/03 10:24:35;;;;;;;9.65;4.18;;;19.00;52.00;;;;;;5051839;28;20654;-74
2023/06/03 10:27:02;;;;;;;9.50;3.83;;;19.00;52.10;;;;;;5052024;28;20215;-71
2023/06/03 10:29:31;;;;;;;11.73;3.83;;;19.00;52.20;;;;;;5053900;28;20184;-73
2023/06/03 10:32:00;;;;;;;8.93;3.75;;;19.00;52.10;;;;;;5038268;28;20219;-72
2023/06/03 10:34:29;;;;;;;10.40;4.10;;;19.00;52.20;;;;;;5056107;28;20194;-72
2023/06/03 10:37:01;;;;;;;9.38;3.80;;;19.00;52.20;;;;;;5055684;28;20187;-72
2023/06/03 10:39:30;;;;;;;11.32;3.80;;;19.00;52.20;;;;;;5055982;28;20599;-72
2023/06/03 10:41:59;;;;;;;11.88;4.18;;;19.00;52.20;;;;;;5055923;28;20191;-71
2023/06/03 10:44:27;;;;;;;13.32;4.00;;;19.00;52.20;;;;;;5055605;28;20707;-72
2023/06/03 10:46:59;;;;;;;7.30;3.70;;;19.00;52.30;;;;;;5055997;28;20203;-72
2023/06/03 10:49:32;;;;;;;11.40;3.75;;;19.00;52.20;;;;;;5038065;28;20184;-73
2023/06/03 10:52:30;;;;;;;8.65;4.00;;;19.00;52.30;;;;;;5055471;28;20192;-71
2023/06/03 10:55:10;;;;;;;7.63;3.80;;;19.00;52.40;;;;;;5055819;28;20191;-71
2023/06/03 10:57:42;;;;;;;9.27;3.92;;;19.00;52.40;;;;;;5055721;28;20215;-72
2023/06/03 11:00:10;;;;;;;10.50;4.03;;;19.00;52.30;;;;;;5055659;28;20576;-71
2023/06/03 11:03:08;;;;;;;9.98;3.85;;;19.00;52.40;;;;;;5055248;28;20239;-74
2023/06/03 11:05:35;;;;;;;11.57;4.15;;;19.00;52.40;;;;;;5013401;28;20249;-71
2023/06/03 11:08:02;;;;;;;10.57;3.88;;;19.00;52.30;;;;;;5013316;28;20228;-73
2023/06/03 11:10:49;;;;;;;9.05;3.85;;;19.00;52.30;;;;;;5013165;28;20563;-72
2023/06/03 11:13:41;;;;;;;9.27;4.00;;;19.00;52.40;;;;;;5013242;28;20303;-74
2023/06/03 11:16:08;;;;;;;10.65;4.07;;;19.00;52.40;;;;;;5013082;28;20197;-71
2023/06/03 11:18:35;;;;;;;13.52;4.65;;;19.00;52.40;;;;;;5013168;28;20217;-71
2023/06/03 11:21:02;;;;;;;10.60;3.90;;;19.00;52.40;;;;;;5013121;28;20211;-72
2023/06/03 11:23:43;;;;;;;9.57;4.32;;;19.00;52.50;;;;;;5012945;28;20239;-71
2023/06/03 11:26:34;;;;;;;10.30;3.90;;;19.00;52.50;;;;;;5012938;28;20200;-71
2023/06/03 11:29:04;;;;;;;12.13;4.30;;;19.00;52.50;;;;;;5012903;28;20304;-71
2023/06/03 11:31:33;;;;;;;11.38;4.00;;;19.00;52.50;;;;;;5012876;28;20244;-72
2023/06/03 11:34:23;;;;;;;9.77;4.05;;;19.00;52.50;;;;;;5013129;28;20223;-71
2023/06/03 11:36:51;;;;;;;12.02;4.45;;;19.00;52.50;;;;;;5012553;28;20643;-76
2023/06/03 11:39:18;;;;;;;8.38;3.85;;;19.00;52.60;;;;;;5025608;28;20200;-77
2023/06/03 11:42:06;;;;;;;8.10;4.10;;;19.10;52.80;;;;;;5054919;28;20192;-78
2023/06/03 11:44:33;;;;;;;9.88;4.22;;;19.10;52.70;;;;;;5044783;28;20269;-77
2023/06/03 11:47:01;;;;;;;13.77;4.65;;;19.10;52.80;;;;;;5053303;28;20572;-76
2023/06/03 11:49:28;;;;;;;12.18;4.25;;;19.10;52.80;;;;;;5053867;28;20188;-75
2023/06/03 11:51:58;;;;;;;12.75;4.32;;;19.20;52.90;;;;;;5053135;28;20188;-77
2023/06/03 11:54:26;;;;;;;10.50;4.68;;;19.20;52.80;;;;;;5053446;28;20195;-75
2023/06/03 11:56:54;;;;;;;14.00;4.40;;;19.20;52.80;;;;;;5053000;28;20305;-72
2023/06/03 11:59:28;;;;;;;9.80;4.30;;;19.30;53.10;;;;;;5051922;28;20577;-78
